createdAt,value
2019-03-30T00:02:07.720Z,70.29
2019-03-30T00:04:34.373Z,70.26
2019-03-30T00:07:01.004Z,70.47
2019-03-30T00:09:27.336Z,70.87
2019-03-30T00:11:53.737Z,70.72
2019-03-30T00:14:20.044Z,71.13
2019-03-30T00:16:46.499Z,71.68
2019-03-30T00:19:12.851Z,71.73
2019-03-30T00:21:39.543Z,71.94
2019-03-30T00:24:06.458Z,72.09
2019-03-30T00:26:33.102Z,72.21
2019-03-30T00:28:59.748Z,72.28
2019-03-30T00:31:26.049Z,72.37
2019-03-30T00:33:52.400Z,72.29
2019-03-30T00:36:18.810Z,72.50
2019-03-30T00:38:45.115Z,72.35
2019-03-30T00:41:11.516Z,72.00
2019-03-30T00:43:38.235Z,71.80
2019-03-30T00:46:04.889Z,71.87
2019-03-30T00:48:32.291Z,72.05
2019-03-30T00:50:58.608Z,72.05
2019-03-30T00:53:25.366Z,72.11
2019-03-30T00:55:51.710Z,72.29
2019-03-30T00:58:18.396Z,71.56
2019-03-30T01:00:44.812Z,71.73
2019-03-30T01:03:11.158Z,71.84
2019-03-30T01:05:37.543Z,72.10
2019-03-30T01:08:03.916Z,72.38
2019-03-30T01:10:30.673Z,72.29
2019-03-30T01:12:56.984Z,72.67
2019-03-30T01:15:23.309Z,72.55
2019-03-30T01:17:50.049Z,72.57
2019-03-30T01:20:17.817Z,72.56
2019-03-30T01:22:44.171Z,72.66
2019-03-30T01:25:11.092Z,72.77
2019-03-30T01:27:37.546Z,73.19
2019-03-30T01:30:05.598Z,73.03
2019-03-30T01:32:34.913Z,72.97
2019-03-30T01:35:01.239Z,72.83
2019-03-30T01:37:27.995Z,73.01
2019-03-30T01:39:54.704Z,73.01
2019-03-30T01:42:21.088Z,73.06
2019-03-30T01:44:47.421Z,73.10
2019-03-30T01:47:14.428Z,73.14
2019-03-30T01:49:40.799Z,72.97
2019-03-30T01:52:07.530Z,72.82
2019-03-30T01:54:34.227Z,71.89
2019-03-30T01:57:00.853Z,71.90
2019-03-30T01:59:27.188Z,72.24
2019-03-30T02:01:53.526Z,72.41
2019-03-30T02:04:20.176Z,72.22
2019-03-30T02:06:46.539Z,72.47
2019-03-30T02:09:12.897Z,72.92
2019-03-30T02:11:40.183Z,73.31
2019-03-30T02:14:06.826Z,73.31
2019-03-30T02:16:33.454Z,72.89
2019-03-30T02:18:59.823Z,72.51
2019-03-30T02:21:26.459Z,72.98
2019-03-30T02:23:52.802Z,72.97
2019-03-30T02:26:19.197Z,73.30
2019-03-30T02:28:45.609Z,73.51
2019-03-30T02:31:11.967Z,73.38
2019-03-30T02:33:44.406Z,73.06
2019-03-30T02:36:10.796Z,73.22
2019-03-30T02:38:37.120Z,73.60
2019-03-30T02:41:03.472Z,73.62
2019-03-30T02:43:30.402Z,73.47
2019-03-30T02:45:56.757Z,73.39
2019-03-30T02:48:23.391Z,73.06
2019-03-30T02:50:50.774Z,73.34
2019-03-30T02:53:19.222Z,73.37
2019-03-30T02:55:45.761Z,73.24
2019-03-30T02:58:12.093Z,73.26
2019-03-30T03:00:39.216Z,72.98
2019-03-30T03:03:05.564Z,72.75
2019-03-30T03:05:33.500Z,72.95
2019-03-30T03:07:59.909Z,72.47
2019-03-30T03:10:26.351Z,72.32
2019-03-30T03:12:53.021Z,72.66
2019-03-30T03:15:19.353Z,72.41
2019-03-30T03:17:45.838Z,73.28
2019-03-30T03:20:12.769Z,73.67
2019-03-30T03:22:39.087Z,73.49
2019-03-30T03:25:05.833Z,74.07
2019-03-30T03:27:32.544Z,73.93
2019-03-30T03:29:59.358Z,74.68
2019-03-30T03:32:25.736Z,74.73
2019-03-30T03:34:52.128Z,74.36
2019-03-30T03:37:19.493Z,74.28
2019-03-30T03:39:47.565Z,74.29
2019-03-30T03:42:14.106Z,74.13
2019-03-30T03:44:41.473Z,73.92
2019-03-30T03:47:07.830Z,74.05
2019-03-30T03:49:34.959Z,74.20
2019-03-30T03:52:01.457Z,74.60
2019-03-30T03:54:28.201Z,74.68
2019-03-30T03:56:56.451Z,74.89
2019-03-30T03:59:26.316Z,75.25
2019-03-30T04:01:53.778Z,74.93
2019-03-30T04:04:20.998Z,74.69
2019-03-30T04:06:48.624Z,75.10
2019-03-30T04:09:15.353Z,75.47
2019-03-30T04:11:42.322Z,75.41
2019-03-30T04:14:10.567Z,75.40
2019-03-30T04:16:37.342Z,75.43
2019-03-30T04:19:03.711Z,75.58
2019-03-30T04:21:43.923Z,75.47
2019-03-30T04:23:59.272Z,75.20
2019-03-30T04:26:26.292Z,75.22
2019-03-30T04:28:52.653Z,75.24
2019-03-30T04:31:18.979Z,75.05
2019-03-30T04:33:45.452Z,75.10
2019-03-30T04:36:11.801Z,74.96
2019-03-30T04:38:38.122Z,74.93
2019-03-30T04:41:04.801Z,75.51
2019-03-30T04:43:31.308Z,75.37
2019-03-30T04:46:01.847Z,74.31
2019-03-30T04:48:29.644Z,74.84
2019-03-30T04:50:56.472Z,74.81
2019-03-30T04:53:22.869Z,74.79
2019-03-30T04:55:49.252Z,74.71
2019-03-30T04:58:15.893Z,74.63
2019-03-30T05:00:42.503Z,74.67
2019-03-30T05:03:08.868Z,74.74
2019-03-30T05:05:36.807Z,74.83
2019-03-30T05:08:03.158Z,74.25
2019-03-30T05:10:29.872Z,74.38
2019-03-30T05:12:56.222Z,74.24
2019-03-30T05:15:22.859Z,73.48
2019-03-30T05:17:50.217Z,73.38
2019-03-30T05:20:16.949Z,73.33
2019-03-30T05:22:43.273Z,73.09
2019-03-30T05:25:09.618Z,72.95
2019-03-30T05:27:35.973Z,72.85
2019-03-30T05:30:05.548Z,72.37
2019-03-30T05:32:32.054Z,72.48
2019-03-30T05:34:58.594Z,72.34
2019-03-30T05:37:24.957Z,71.97
2019-03-30T05:39:51.579Z,72.13
2019-03-30T05:42:17.969Z,71.49
2019-03-30T05:44:44.323Z,71.30
2019-03-30T05:47:11.113Z,71.19
2019-03-30T05:49:37.522Z,70.82
2019-03-30T05:52:03.845Z,70.43
2019-03-30T05:54:30.155Z,69.91
2019-03-30T05:56:56.496Z,69.51
2019-03-30T05:59:22.834Z,68.13
2019-03-30T06:02:09.093Z,68.41
2019-03-30T06:04:35.442Z,68.04
2019-03-30T06:07:02.127Z,66.85
2019-03-30T06:09:28.456Z,66.36
2019-03-30T06:11:55.189Z,65.99
2019-03-30T06:14:21.940Z,65.95
2019-03-30T06:16:48.431Z,65.30
2019-03-30T06:19:15.109Z,63.97
2019-03-30T06:21:41.838Z,63.32
2019-03-30T06:24:08.179Z,63.07
2019-03-30T06:26:34.825Z,63.67
2019-03-30T06:29:01.575Z,63.22
2019-03-30T06:31:28.405Z,62.22
2019-03-30T06:33:54.736Z,61.06
2019-03-30T06:36:21.475Z,61.19
2019-03-30T06:38:47.784Z,60.82
2019-03-30T06:41:14.168Z,60.23
2019-03-30T06:43:40.493Z,59.83
2019-03-30T06:46:07.193Z,59.08
2019-03-30T06:48:36.136Z,58.99
2019-03-30T06:51:02.427Z,58.83
2019-03-30T06:53:28.924Z,58.18
2019-03-30T06:55:55.309Z,57.94
2019-03-30T06:58:21.689Z,57.00
2019-03-30T07:00:48.590Z,56.89
2019-03-30T07:03:15.004Z,56.39
2019-03-30T07:05:42.319Z,55.91
2019-03-30T07:08:15.688Z,55.30
2019-03-30T07:10:42.641Z,54.28
2019-03-30T07:13:09.145Z,54.24
2019-03-30T07:15:46.389Z,53.50
2019-03-30T07:18:14.867Z,52.04
2019-03-30T07:20:41.393Z,52.07
2019-03-30T07:23:12.861Z,52.56
2019-03-30T07:25:40.590Z,51.56
2019-03-30T07:28:08.425Z,51.71
2019-03-30T07:30:35.060Z,51.36
2019-03-30T07:33:02.044Z,51.16
2019-03-30T07:35:28.431Z,50.48
2019-03-30T07:37:55.082Z,50.10
2019-03-30T07:40:21.861Z,50.37
2019-03-30T07:42:48.303Z,50.56
2019-03-30T07:45:14.618Z,50.46
2019-03-30T07:47:40.941Z,49.59
2019-03-30T07:50:07.496Z,49.83
2019-03-30T07:52:34.042Z,50.16
2019-03-30T07:55:00.424Z,50.04
2019-03-30T07:57:27.187Z,50.00
2019-03-30T07:59:53.538Z,49.48
2019-03-30T08:02:19.876Z,49.31
2019-03-30T08:04:46.276Z,48.47
2019-03-30T08:07:12.611Z,48.16
2019-03-30T08:09:38.946Z,47.75
2019-03-30T08:12:05.860Z,47.49
2019-03-30T08:14:32.191Z,47.31
2019-03-30T08:16:58.522Z,47.30
2019-03-30T08:19:24.861Z,47.36
2019-03-30T08:21:51.174Z,46.83
2019-03-30T08:24:18.925Z,46.55
2019-03-30T08:26:46.923Z,46.75
2019-03-30T08:29:13.704Z,48.04
2019-03-30T08:31:40.413Z,47.29
2019-03-30T08:34:06.793Z,47.33
2019-03-30T08:36:33.482Z,46.86
2019-03-30T08:38:59.852Z,46.62
2019-03-30T08:41:27.321Z,47.03
2019-03-30T08:43:54.025Z,46.29
2019-03-30T08:46:20.407Z,46.16
2019-03-30T08:48:47.092Z,44.97
2019-03-30T08:51:13.730Z,44.52
2019-03-30T08:53:53.714Z,43.92
2019-03-30T08:56:08.628Z,43.51
2019-03-30T08:58:36.127Z,43.20
2019-03-30T09:01:02.616Z,43.94
2019-03-30T09:03:29.002Z,43.42
2019-03-30T09:05:55.567Z,44.01
2019-03-30T09:08:22.229Z,43.12
2019-03-30T09:10:48.591Z,43.30
2019-03-30T09:13:15.259Z,43.09
2019-03-30T09:15:41.639Z,42.52
2019-03-30T09:18:08.397Z,42.36
2019-03-30T09:20:35.569Z,41.74
2019-03-30T09:23:02.282Z,41.50
2019-03-30T09:25:28.721Z,40.44
2019-03-30T09:27:55.250Z,40.58
2019-03-30T09:30:22.602Z,40.70
2019-03-30T09:32:49.243Z,39.95
2019-03-30T09:35:15.947Z,39.69
2019-03-30T09:37:42.270Z,40.25
2019-03-30T09:40:09.534Z,39.99
2019-03-30T09:42:36.144Z,37.30
2019-03-30T09:45:05.380Z,36.48
2019-03-30T09:47:32.154Z,35.24
2019-03-30T09:50:02.132Z,34.78
2019-03-30T09:52:26.837Z,36.19
2019-03-30T09:54:53.488Z,36.98
2019-03-30T09:57:20.154Z,37.00
2019-03-30T09:59:46.481Z,36.22
2019-03-30T10:02:12.937Z,36.19
2019-03-30T10:04:39.590Z,35.44
2019-03-30T10:07:06.300Z,34.84
2019-03-30T10:09:32.682Z,34.35
2019-03-30T10:11:59.349Z,34.39
2019-03-30T10:14:26.009Z,34.40
2019-03-30T10:16:52.863Z,35.08
2019-03-30T10:19:19.189Z,33.39
2019-03-30T10:21:46.080Z,33.78
2019-03-30T10:24:12.747Z,33.48
2019-03-30T10:26:39.149Z,32.46
2019-03-30T10:29:05.811Z,32.71
2019-03-30T10:31:32.184Z,32.39
2019-03-30T10:33:59.097Z,32.38
2019-03-30T10:36:25.862Z,32.07
2019-03-30T10:38:52.204Z,32.44
2019-03-30T10:41:18.547Z,31.67
2019-03-30T10:43:44.893Z,31.21
2019-03-30T10:46:11.229Z,33.08
2019-03-30T10:48:42.703Z,33.37
2019-03-30T10:51:09.081Z,33.61
2019-03-30T10:53:35.468Z,33.87
2019-03-30T10:56:02.110Z,33.61
2019-03-30T10:58:28.494Z,32.23
2019-03-30T11:00:55.340Z,33.10
2019-03-30T11:03:22.090Z,31.84
2019-03-30T11:05:48.552Z,32.75
2019-03-30T11:08:15.395Z,33.18
2019-03-30T11:10:42.061Z,31.84
2019-03-30T11:13:08.396Z,32.05
2019-03-30T11:15:35.002Z,31.17
2019-03-30T11:18:01.338Z,31.34
2019-03-30T11:20:27.983Z,31.51
2019-03-30T11:22:54.340Z,31.25
2019-03-30T11:25:20.672Z,30.85
2019-03-30T11:27:47.031Z,30.07
2019-03-30T11:30:13.918Z,30.71
2019-03-30T11:32:41.910Z,29.19
2019-03-30T11:35:08.349Z,28.83
2019-03-30T11:37:35.089Z,27.27
2019-03-30T11:40:04.256Z,26.56
2019-03-30T11:42:30.580Z,25.02
2019-03-30T11:44:56.975Z,23.58
2019-03-30T11:47:24.146Z,22.65
2019-03-30T11:49:50.507Z,21.41
2019-03-30T11:52:16.819Z,21.35
2019-03-30T11:54:43.171Z,19.50
2019-03-30T11:57:09.536Z,17.20
2019-03-30T11:59:35.904Z,17.62
2019-03-30T12:02:02.436Z,18.23
2019-03-30T12:04:29.112Z,18.07
2019-03-30T12:06:55.758Z,16.86
2019-03-30T12:09:22.388Z,16.15
2019-03-30T12:11:48.747Z,16.20
2019-03-30T12:14:15.372Z,14.97
2019-03-30T12:16:42.012Z,15.78
2019-03-30T12:19:08.854Z,15.70
2019-03-30T12:21:35.180Z,13.93
2019-03-30T12:24:01.921Z,15.30
2019-03-30T12:26:28.660Z,16.37
2019-03-30T12:28:55.341Z,16.30
2019-03-30T12:31:22.279Z,14.27
2019-03-30T12:33:48.724Z,13.51
2019-03-30T12:36:16.701Z,14.96
2019-03-30T12:38:43.489Z,15.50
2019-03-30T12:41:10.025Z,13.43
2019-03-30T12:43:38.962Z,12.97
2019-03-30T12:46:04.570Z,14.43
2019-03-30T12:48:31.389Z,13.32
2019-03-30T12:50:58.018Z,12.00
2019-03-30T12:53:24.535Z,13.47
2019-03-30T12:55:51.193Z,15.25
2019-03-30T12:58:17.529Z,14.62
2019-03-30T13:00:44.369Z,14.39
2019-03-30T13:03:11.996Z,14.86
2019-03-30T13:05:38.672Z,14.40
2019-03-30T13:08:05.004Z,13.16
2019-03-30T13:10:31.732Z,13.98
2019-03-30T13:12:58.076Z,13.34
2019-03-30T13:15:24.814Z,13.24
2019-03-30T13:17:51.269Z,12.99
2019-03-30T13:20:17.626Z,12.91
2019-03-30T13:22:43.983Z,12.40
2019-03-30T13:25:10.451Z,13.09
2019-03-30T13:27:36.798Z,13.48
2019-03-30T13:30:07.915Z,12.30
2019-03-30T13:32:34.758Z,11.67
2019-03-30T13:35:01.219Z,12.11
2019-03-30T13:37:27.579Z,12.74
2019-03-30T13:39:54.372Z,13.17
2019-03-30T13:42:23.886Z,13.09
2019-03-30T13:44:50.202Z,11.19
2019-03-30T13:47:16.573Z,12.60
2019-03-30T13:49:42.870Z,12.79
2019-03-30T13:52:09.277Z,11.87
2019-03-30T13:54:38.600Z,12.33
2019-03-30T13:57:03.906Z,9.94
2019-03-30T13:59:30.261Z,10.19
2019-03-30T14:01:56.579Z,9.69
2019-03-30T14:04:22.961Z,9.93
2019-03-30T14:06:49.638Z,10.12
2019-03-30T14:09:16.237Z,10.52
2019-03-30T14:11:42.932Z,10.44
2019-03-30T14:14:09.273Z,10.82
2019-03-30T14:16:35.889Z,10.74
2019-03-30T14:19:02.768Z,10.73
2019-03-30T14:21:29.476Z,11.07
2019-03-30T14:23:57.755Z,11.32
2019-03-30T14:26:31.108Z,11.10
2019-03-30T14:28:52.996Z,11.93
2019-03-30T14:31:19.621Z,12.11
2019-03-30T14:33:46.375Z,11.54
2019-03-30T14:36:12.707Z,11.04
2019-03-30T14:38:39.438Z,10.80
2019-03-30T14:41:06.171Z,9.81
2019-03-30T14:43:32.490Z,10.74
2019-03-30T14:45:59.066Z,12.43
2019-03-30T14:48:25.868Z,12.83
2019-03-30T14:50:52.208Z,11.82
2019-03-30T14:53:18.568Z,12.06
2019-03-30T14:55:45.016Z,12.65
2019-03-30T14:58:11.349Z,12.58
2019-03-30T15:00:37.740Z,13.14
2019-03-30T15:03:04.580Z,14.68
2019-03-30T15:05:30.983Z,15.51
2019-03-30T15:07:57.991Z,14.94
2019-03-30T15:10:24.331Z,14.91
2019-03-30T15:12:51.546Z,15.02
2019-03-30T15:15:18.185Z,14.02
2019-03-30T15:17:44.509Z,14.41
2019-03-30T15:20:11.409Z,14.67
2019-03-30T15:22:37.704Z,14.97
2019-03-30T15:25:08.301Z,14.25
2019-03-30T15:27:35.160Z,15.20
2019-03-30T15:30:04.912Z,14.78
2019-03-30T15:32:31.526Z,13.76
2019-03-30T15:34:58.538Z,13.89
2019-03-30T15:37:25.270Z,13.44
2019-03-30T15:39:51.615Z,13.75
2019-03-30T15:42:18.281Z,14.51
2019-03-30T15:44:44.688Z,13.59
2019-03-30T15:47:11.071Z,13.52
2019-03-30T15:49:37.375Z,13.83
2019-03-30T15:52:13.699Z,14.60
2019-03-30T15:54:32.286Z,13.71
2019-03-30T15:56:58.596Z,13.40
2019-03-30T15:59:24.937Z,14.65
2019-03-30T16:01:51.294Z,15.49
2019-03-30T16:04:17.689Z,15.25
2019-03-30T16:06:44.669Z,15.47
2019-03-30T16:09:11.062Z,16.09
2019-03-30T16:11:37.399Z,16.23
2019-03-30T16:14:03.820Z,17.54
2019-03-30T16:16:30.910Z,18.45
2019-03-30T16:18:57.250Z,19.53
2019-03-30T16:21:23.870Z,20.52
2019-03-30T16:23:50.211Z,22.93
2019-03-30T16:26:16.536Z,24.45
2019-03-30T16:28:42.920Z,25.72
2019-03-30T16:31:09.647Z,26.54
2019-03-30T16:33:41.304Z,27.34
2019-03-30T16:36:07.611Z,27.53
2019-03-30T16:38:34.036Z,28.29
2019-03-30T16:41:00.873Z,28.73
2019-03-30T16:43:27.215Z,29.26
2019-03-30T16:45:53.546Z,29.50
2019-03-30T16:48:20.082Z,30.02
2019-03-30T16:50:46.520Z,30.15
2019-03-30T16:53:13.242Z,30.20
2019-03-30T16:55:39.889Z,30.29
2019-03-30T16:58:06.218Z,30.89
2019-03-30T17:00:32.568Z,30.71
2019-03-30T17:03:00.931Z,31.43
2019-03-30T17:05:27.417Z,31.61
2019-03-30T17:07:54.098Z,31.75
2019-03-30T17:10:20.489Z,32.09
2019-03-30T17:12:47.067Z,32.52
2019-03-30T17:15:13.436Z,32.40
2019-03-30T17:17:40.137Z,33.22
2019-03-30T17:20:07.368Z,33.79
2019-03-30T17:22:34.033Z,34.08
2019-03-30T17:25:00.783Z,34.16
2019-03-30T17:27:27.109Z,34.36
2019-03-30T17:29:53.486Z,34.96
2019-03-30T17:32:19.839Z,35.73
2019-03-30T17:34:46.259Z,36.00
2019-03-30T17:37:14.434Z,36.76
2019-03-30T17:39:41.204Z,36.95
2019-03-30T17:42:07.550Z,38.03
2019-03-30T17:44:33.928Z,38.11
2019-03-30T17:47:00.636Z,38.56
2019-03-30T17:49:27.250Z,39.28
2019-03-30T17:51:54.110Z,40.19
2019-03-30T17:54:20.544Z,40.87
2019-03-30T17:56:46.889Z,41.38
2019-03-30T17:59:13.702Z,42.22
2019-03-30T18:01:40.222Z,42.70
2019-03-30T18:04:06.854Z,42.82
2019-03-30T18:06:33.553Z,43.01
2019-03-30T18:08:59.952Z,43.18
2019-03-30T18:11:26.435Z,43.09
2019-03-30T18:13:53.142Z,43.66
2019-03-30T18:16:22.377Z,43.56
2019-03-30T18:18:48.774Z,43.39
2019-03-30T18:21:15.104Z,43.24
2019-03-30T18:23:41.837Z,43.38
2019-03-30T18:26:08.628Z,43.94
2019-03-30T18:28:35.323Z,44.14
2019-03-30T18:31:02.101Z,44.32
2019-03-30T18:33:29.033Z,43.89
2019-03-30T18:35:55.632Z,43.82
2019-03-30T18:38:22.072Z,44.24
2019-03-30T18:40:48.426Z,44.56
2019-03-30T18:43:14.941Z,44.70
2019-03-30T18:45:41.568Z,44.85
2019-03-30T18:48:16.026Z,44.89
2019-03-30T18:50:44.515Z,45.24
2019-03-30T18:53:11.011Z,46.78
2019-03-30T18:55:37.655Z,47.65
2019-03-30T18:58:04.111Z,47.94
2019-03-30T19:00:30.492Z,48.41
2019-03-30T19:02:56.941Z,48.73
2019-03-30T19:05:23.275Z,49.24
2019-03-30T19:07:50.433Z,49.96
2019-03-30T19:10:16.774Z,50.23
2019-03-30T19:12:43.403Z,50.43
2019-03-30T19:15:10.038Z,50.37
2019-03-30T19:17:36.399Z,50.46
2019-03-30T19:20:05.673Z,50.36
2019-03-30T19:22:31.999Z,50.55
2019-03-30T19:24:58.760Z,51.12
2019-03-30T19:27:25.090Z,51.29
2019-03-30T19:29:51.847Z,51.40
2019-03-30T19:32:18.194Z,51.35
2019-03-30T19:34:44.888Z,51.75
2019-03-30T19:37:11.647Z,51.76
2019-03-30T19:39:38.372Z,52.07
2019-03-30T19:42:05.012Z,52.59
2019-03-30T19:44:31.831Z,53.22
2019-03-30T19:46:58.243Z,53.63
2019-03-30T19:49:24.596Z,53.96
2019-03-30T19:51:51.293Z,54.29
2019-03-30T19:54:17.674Z,54.15
2019-03-30T19:56:44.036Z,54.15
2019-03-30T19:59:11.380Z,54.66
2019-03-30T20:01:38.336Z,54.87
2019-03-30T20:04:07.529Z,55.15
2019-03-30T20:06:33.344Z,55.25
2019-03-30T20:08:59.820Z,55.59
2019-03-30T20:11:26.247Z,55.97
2019-03-30T20:13:52.718Z,56.72
2019-03-30T20:16:19.042Z,57.08
2019-03-30T20:18:45.404Z,57.69
2019-03-30T20:21:11.761Z,57.89
2019-03-30T20:23:38.385Z,57.94
2019-03-30T20:26:05.007Z,58.04
2019-03-30T20:28:31.360Z,57.95
2019-03-30T20:30:57.719Z,58.30
2019-03-30T20:33:24.251Z,58.22
2019-03-30T20:35:51.099Z,58.03
2019-03-30T20:38:17.775Z,57.84
2019-03-30T20:40:44.535Z,57.94
2019-03-30T20:43:10.863Z,57.97
2019-03-30T20:45:37.524Z,58.29
2019-03-30T20:48:03.945Z,58.60
2019-03-30T20:50:30.300Z,59.13
2019-03-30T20:52:56.674Z,59.27
2019-03-30T20:55:23.238Z,59.18
2019-03-30T20:57:49.616Z,59.16
2019-03-30T21:00:16.818Z,59.33
2019-03-30T21:02:43.210Z,59.60
2019-03-30T21:05:10.622Z,59.82
2019-03-30T21:07:37.486Z,59.69
2019-03-30T21:10:08.339Z,59.92
2019-03-30T21:12:34.773Z,59.98
2019-03-30T21:15:01.473Z,59.90
2019-03-30T21:17:27.855Z,59.88
2019-03-30T21:19:54.665Z,59.87
2019-03-30T21:22:21.315Z,59.95
2019-03-30T21:24:47.750Z,59.92
2019-03-30T21:27:14.073Z,60.45
2019-03-30T21:29:54.053Z,60.02
2019-03-30T21:32:08.663Z,60.35
2019-03-30T21:34:35.027Z,60.04
2019-03-30T21:37:01.369Z,60.01
2019-03-30T21:39:28.142Z,60.34
2019-03-30T21:41:54.519Z,60.70
2019-03-30T21:44:22.298Z,60.18
2019-03-30T21:46:49.435Z,60.42
2019-03-30T21:49:16.056Z,61.35
2019-03-30T21:51:42.794Z,61.60
2019-03-30T21:54:09.420Z,62.04
2019-03-30T21:56:35.825Z,61.91
2019-03-30T21:59:02.496Z,62.21
2019-03-30T22:01:29.139Z,62.33
2019-03-30T22:03:56.915Z,62.05
2019-03-30T22:06:23.264Z,62.34
2019-03-30T22:08:49.611Z,62.31
2019-03-30T22:11:16.256Z,61.83
2019-03-30T22:13:42.605Z,62.23
2019-03-30T22:16:09.272Z,62.51
2019-03-30T22:18:36.420Z,62.69
2019-03-30T22:21:02.730Z,62.67
2019-03-30T22:23:29.385Z,63.12
2019-03-30T22:25:55.762Z,63.15
2019-03-30T22:28:22.400Z,63.39
2019-03-30T22:30:48.787Z,63.55
2019-03-30T22:33:15.115Z,63.75
2019-03-30T22:35:41.794Z,63.83
2019-03-30T22:38:08.398Z,63.28
2019-03-30T22:40:35.068Z,63.13
2019-03-30T22:43:01.681Z,63.49
2019-03-30T22:45:28.023Z,63.70
2019-03-30T22:47:54.352Z,63.82
2019-03-30T22:50:21.093Z,64.13
2019-03-30T22:52:47.427Z,64.05
2019-03-30T22:55:13.796Z,64.10
2019-03-30T22:57:40.166Z,64.20
2019-03-30T23:00:09.182Z,64.14
2019-03-30T23:02:37.947Z,63.79
2019-03-30T23:05:04.832Z,64.53
2019-03-30T23:07:31.602Z,64.86
2019-03-30T23:09:57.965Z,64.74
2019-03-30T23:12:24.729Z,64.94
2019-03-30T23:14:53.001Z,64.53
2019-03-30T23:17:19.656Z,64.68
2019-03-30T23:19:46.041Z,64.22
2019-03-30T23:22:12.387Z,64.17
2019-03-30T23:24:38.762Z,64.41
2019-03-30T23:27:06.272Z,64.19
2019-03-30T23:29:32.610Z,64.63
2019-03-30T23:31:59.332Z,64.41
2019-03-30T23:34:26.127Z,64.01
2019-03-30T23:36:52.430Z,63.46
2019-03-30T23:39:18.789Z,63.08
2019-03-30T23:41:45.141Z,63.33
2019-03-30T23:44:11.479Z,63.33
2019-03-30T23:46:38.218Z,63.85
2019-03-30T23:49:05.430Z,63.98
2019-03-30T23:51:33.403Z,64.07
2019-03-30T23:54:00.342Z,64.21
2019-03-30T23:56:26.693Z,64.10
2019-03-30T23:58:53.324Z,64.58
